Time;durP1;ratioP1;P1;durP2;ratioP2;P2;SDS_P1;SDS_P2;PMS_P1;PMS_P2;Temp;Humidity;BMP_temperature;BMP_pressure;BME280_temperature;BME280_humidity;BME280_pressure;Samples;Min_cycle;Max_cycle;Signal;HPM_P1;HPM_P2
2021/09/16 00:00:54;;;;;;;;;10.00;9.00;;;;;19.46;67.06;101342.28;5051628;28;46839;-75
2021/09/16 00:03:19;;;;;;;;;7.00;7.00;;;;;19.41;67.12;101342.34;5056324;28;45377;-75
2021/09/16 00:05:45;;;;;;;;;7.00;7.00;;;;;19.35;66.72;101337.09;5056554;28;48866;-75
2021/09/16 00:08:10;;;;;;;;;9.67;6.67;;;;;19.32;67.21;101348.75;5064786;28;45754;-75
2021/09/16 00:10:35;;;;;;;;;9.67;8.00;;;;;19.29;67.12;101347.94;5056024;28;59564;-75
2021/09/16 00:13:01;;;;;;;;;7.67;6.00;;;;;19.20;67.43;101346.28;5048776;28;58659;-75
2021/09/16 00:15:26;;;;;;;;;8.00;6.67;;;;;19.16;67.61;101336.50;5046894;28;49978;-75
2021/09/16 00:17:52;;;;;;;;;7.00;7.00;;;;;19.10;68.18;101348.22;5051829;28;45411;-75
2021/09/16 00:20:17;;;;;;;;;7.00;7.00;;;;;19.03;68.71;101348.34;5054357;28;57756;-75
2021/09/16 00:22:42;;;;;;;;;8.00;8.00;;;;;18.97;68.83;101346.66;5052041;28;60460;-75
2021/09/16 00:25:08;;;;;;;;;9.33;8.33;;;;;18.93;68.88;101350.28;5052987;28;45359;-75
2021/09/16 00:27:33;;;;;;;;;9.00;8.00;;;;;18.88;69.11;101348.56;5047218;28;45553;-76
2021/09/16 00:29:59;;;;;;;;;9.00;9.00;;;;;18.76;69.98;101345.19;5052965;28;46294;-75
2021/09/16 00:32:24;;;;;;;;;7.67;6.67;;;;;18.74;69.36;101349.66;5052520;28;54873;-76
2021/09/16 00:34:49;;;;;;;;;9.67;9.00;;;;;18.70;69.82;101355.97;5057643;28;45420;-76
2021/09/16 00:37:16;;;;;;;;;9.00;8.67;;;;;18.66;69.63;101361.34;5050281;28;48446;-75
2021/09/16 00:39:41;;;;;;;;;9.00;8.00;;;;;18.59;70.21;101364.13;5059236;28;47678;-75
2021/09/16 00:42:07;;;;;;;;;10.67;9.00;;;;;18.57;70.05;101363.22;5047906;28;45197;-77
2021/09/16 00:44:32;;;;;;;;;10.00;8.67;;;;;18.55;70.40;101362.38;5055493;28;45283;-75
2021/09/16 00:46:57;;;;;;;;;11.33;9.00;;;;;18.53;70.23;101366.84;5054791;28;52639;-75
2021/09/16 00:49:23;;;;;;;;;10.67;8.00;;;;;18.52;69.95;101381.13;5042922;28;58304;-75
2021/09/16 00:51:48;;;;;;;;;8.33;7.33;;;;;18.49;70.28;101375.84;5050704;28;45461;-75
2021/09/16 00:54:14;;;;;;;;;7.00;6.67;;;;;18.47;70.05;101379.41;5056607;28;45467;-75
2021/09/16 00:56:40;;;;;;;;;9.33;9.33;;;;;18.41;70.45;101375.03;5038352;28;45322;-74
2021/09/16 00:59:06;;;;;;;;;11.00;8.33;;;;;18.40;70.52;101377.72;5037347;28;46232;-74
2021/09/16 01:01:31;;;;;;;;;11.00;8.00;;;;;18.41;70.21;101384.84;5046705;28;45471;-74
2021/09/16 01:03:57;;;;;;;;;11.00;10.00;;;;;18.38;70.43;101372.41;5053164;28;45445;-74
2021/09/16 01:06:23;;;;;;;;;12.00;9.00;;;;;18.32;70.63;101376.06;5052479;28;51741;-75
2021/09/16 01:08:48;;;;;;;;;8.67;8.67;;;;;18.32;70.73;101386.75;5040605;28;46433;-74
2021/09/16 01:11:14;;;;;;;;;9.33;8.00;;;;;18.29;70.64;101381.41;5050867;28;49293;-74
2021/09/16 01:13:44;;;;;;;;;8.67;8.67;;;;;18.25;70.55;101379.69;5050535;28;45953;-75
2021/09/16 01:16:09;;;;;;;;;11.67;8.67;;;;;18.27;70.79;101388.59;5056449;28;45544;-76
2021/09/16 01:18:35;;;;;;;;;11.00;10.00;;;;;18.28;70.90;101385.00;5055570;28;55497;-74
2021/09/16 01:21:00;;;;;;;;;8.33;8.00;;;;;18.30;70.92;101384.97;5049715;28;58584;-75
2021/09/16 01:23:25;;;;;;;;;11.67;11.33;;;;;18.32;70.75;101394.78;5052067;28;45866;-74
2021/09/16 01:25:51;;;;;;;;;10.00;10.00;;;;;18.35;70.79;101392.94;5050343;28;45581;-74
2021/09/16 01:28:16;;;;;;;;;13.67;9.67;;;;;18.40;70.60;101402.69;5053499;28;47744;-74
2021/09/16 01:30:46;;;;;;;;;10.00;10.00;;;;;18.39;70.65;101394.69;5052137;28;45423;-75
2021/09/16 01:33:11;;;;;;;;;13.33;12.00;;;;;18.44;70.98;101393.72;5049473;28;45363;-76
2021/09/16 01:35:37;;;;;;;;;13.00;10.00;;;;;18.48;70.98;101398.13;5049292;28;45433;-74
2021/09/16 01:38:02;;;;;;;;;12.00;10.00;;;;;18.51;70.34;101402.53;5048187;28;47284;-75
2021/09/16 01:40:28;;;;;;;;;8.33;8.00;;;;;18.49;70.36;101409.72;5041937;28;59891;-74
2021/09/16 01:42:53;;;;;;;;;9.33;9.33;;;;;18.46;70.17;101412.41;5045904;28;45816;-74
2021/09/16 01:45:20;;;;;;;;;10.33;9.00;;;;;18.42;70.38;101421.38;5042041;28;45738;-74
2021/09/16 01:47:46;;;;;;;;;12.67;12.00;;;;;18.41;70.51;101415.13;5054225;28;46766;-76
2021/09/16 01:50:12;;;;;;;;;9.00;9.00;;;;;18.40;70.61;101409.81;5047860;28;51830;-74
2021/09/16 01:52:38;;;;;;;;;11.67;10.00;;;;;18.41;70.56;101411.59;5053612;28;45541;-75
2021/09/16 01:55:04;;;;;;;;;9.67;9.67;;;;;18.41;70.84;101414.25;5055162;28;45472;-74
2021/09/16 01:57:29;;;;;;;;;12.00;9.00;;;;;18.42;70.85;101408.00;5054818;28;46292;-74
2021/09/16 01:59:54;;;;;;;;;8.67;8.67;;;;;18.46;70.50;101409.75;5053076;28;45476;-74
2021/09/16 02:02:20;;;;;;;;;10.33;9.33;;;;;18.50;70.49;101411.47;5053052;28;46228;-76
2021/09/16 02:04:45;;;;;;;;;9.00;9.00;;;;;18.52;70.16;101410.53;5038038;28;48347;-75
2021/09/16 02:07:10;;;;;;;;;11.33;10.67;;;;;18.49;70.32;101415.06;5051223;28;45587;-74
2021/09/16 02:09:36;;;;;;;;;13.00;10.00;;;;;18.48;70.29;101413.28;5052456;28;58893;-74
2021/09/16 02:12:01;;;;;;;;;8.67;8.00;;;;;18.47;70.17;101419.53;5050323;28;56095;-74
2021/09/16 02:14:27;;;;;;;;;9.00;7.33;;;;;18.45;69.95;101416.88;5053134;28;45265;-74
2021/09/16 02:16:52;;;;;;;;;9.67;9.00;;;;;18.44;69.98;101416.91;5046099;28;61456;-74
2021/09/16 02:19:17;;;;;;;;;9.33;9.33;;;;;18.40;69.72;101415.16;5041436;28;59336;-74
2021/09/16 02:21:43;;;;;;;;;10.00;10.00;;;;;18.42;69.91;101424.03;5048565;28;45490;-74
2021/09/16 02:24:08;;;;;;;;;11.33;10.00;;;;;18.41;70.04;101417.81;5056544;28;54069;-75
2021/09/16 02:26:34;;;;;;;;;10.67;10.67;;;;;18.47;70.09;101414.19;5044719;28;46430;-74
2021/09/16 02:28:59;;;;;;;;;11.00;9.00;;;;;18.47;70.11;101420.41;5046303;28;55480;-74
2021/09/16 02:31:24;;;;;;;;;12.67;10.67;;;;;18.45;70.07;101421.34;5052700;28;58767;-76
2021/09/16 02:33:50;;;;;;;;;10.00;8.00;;;;;18.47;69.74;101423.09;5049287;28;45681;-75
2021/09/16 02:36:15;;;;;;;;;9.00;9.00;;;;;18.46;69.82;101420.44;5044409;28;47300;-74
2021/09/16 02:38:41;;;;;;;;;10.33;8.67;;;;;18.46;69.70;101431.13;5044662;28;45439;-74
2021/09/16 02:41:06;;;;;;;;;9.67;9.67;;;;;18.45;69.64;101421.34;5056310;28;45427;-75
2021/09/16 02:43:31;;;;;;;;;10.00;10.00;;;;;18.45;70.13;101427.56;5054145;28;50298;-74
2021/09/16 02:45:57;;;;;;;;;12.00;10.67;;;;;18.46;69.76;101421.31;5056474;28;61487;-74
2021/09/16 02:48:22;;;;;;;;;8.67;8.33;;;;;18.47;70.28;101430.22;5045951;28;45387;-76
2021/09/16 02:50:48;;;;;;;;;8.67;8.00;;;;;18.45;70.28;101424.91;5056326;28;45701;-75
2021/09/16 02:53:13;;;;;;;;;10.33;10.33;;;;;18.46;69.69;101433.81;5044907;28;45483;-75
2021/09/16 02:55:38;;;;;;;;;14.67;10.00;;;;;18.44;70.05;101431.16;5046366;28;46641;-74
2021/09/16 02:58:04;;;;;;;;;11.33;8.67;;;;;18.45;70.23;101427.56;5048433;28;58651;-76
2021/09/16 03:00:29;;;;;;;;;10.00;9.67;;;;;18.44;70.00;101428.50;5056454;28;46074;-75
2021/09/16 03:02:55;;;;;;;;;10.33;9.33;;;;;18.39;69.85;101424.97;5056661;28;45368;-75
2021/09/16 03:05:20;;;;;;;;;10.33;7.33;;;;;18.39;70.00;101435.69;5052360;28;46391;-75
2021/09/16 03:07:45;;;;;;;;;10.67;10.67;;;;;18.40;70.07;101437.44;5059125;28;56901;-76
2021/09/16 03:10:12;;;;;;;;;10.33;10.00;;;;;18.40;70.08;101436.56;5050610;28;45839;-74
2021/09/16 03:12:38;;;;;;;;;11.67;10.00;;;;;18.39;70.34;101435.69;5043555;28;45628;-75
2021/09/16 03:15:04;;;;;;;;;11.67;9.67;;;;;18.36;70.19;101426.78;5044577;28;46204;-74
2021/09/16 03:17:29;;;;;;;;;12.33;9.67;;;;;18.37;70.27;101437.47;5042404;28;45274;-74
2021/09/16 03:19:55;;;;;;;;;11.00;9.67;;;;;18.39;70.24;101442.81;5044068;28;46285;-74
2021/09/16 03:22:20;;;;;;;;;10.00;9.00;;;;;18.38;70.50;101441.06;5039309;28;53533;-74
2021/09/16 03:24:45;;;;;;;;;12.67;10.00;;;;;18.33;69.90;101427.72;5054778;28;60364;-74
2021/09/16 03:27:11;;;;;;;;;11.00;9.00;;;;;18.36;70.32;101441.03;5041916;28;47918;-76
2021/09/16 03:29:36;;;;;;;;;10.00;7.33;;;;;18.35;70.45;101439.28;5046756;28;45834;-75
2021/09/16 03:32:02;;;;;;;;;7.00;7.00;;;;;18.36;70.38;101445.50;5026773;28;45300;-76
2021/09/16 03:34:27;;;;;;;;;10.00;10.00;;;;;18.35;70.45;101443.75;5037770;28;46559;-76
2021/09/16 03:36:53;;;;;;;;;10.67;9.00;;;;;18.33;70.40;101450.00;5047006;28;45347;-75
2021/09/16 03:39:18;;;;;;;;;10.33;10.00;;;;;18.31;70.55;101443.75;5041518;28;45462;-74
2021/09/16 03:41:44;;;;;;;;;13.33;8.33;;;;;18.35;70.54;101447.31;5036504;28;45794;-74
2021/09/16 03:44:09;;;;;;;;;11.00;9.00;;;;;18.33;70.44;101447.34;5050786;28;45504;-76
2021/09/16 03:46:34;;;;;;;;;12.67;9.67;;;;;18.31;70.17;101440.22;5048449;28;45304;-74
2021/09/16 03:49:00;;;;;;;;;9.00;9.00;;;;;18.30;70.56;101446.47;5048950;28;45483;-74
2021/09/16 03:51:25;;;;;;;;;8.67;8.67;;;;;18.22;70.57;101440.34;5051348;28;52806;-74
2021/09/16 03:53:51;;;;;;;;;11.33;9.00;;;;;18.17;71.22;101440.38;5043051;28;56614;-75
2021/09/16 03:56:16;;;;;;;;;10.33;10.33;;;;;18.13;70.83;101435.06;5039799;28;46087;-74
2021/09/16 03:58:41;;;;;;;;;12.00;9.00;;;;;18.11;70.88;101443.13;5050862;28;52801;-74
2021/09/16 04:01:08;;;;;;;;;9.33;8.00;;;;;18.04;71.14;101428.03;5046742;28;47124;-75
2021/09/16 04:03:33;;;;;;;;;10.33;9.00;;;;;18.04;71.18;101433.38;5045628;28;47385;-74
2021/09/16 04:05:59;;;;;;;;;11.67;10.00;;;;;18.00;71.27;101448.56;5044151;28;45555;-74
2021/09/16 04:08:24;;;;;;;;;8.00;7.33;;;;;17.96;71.20;101446.81;5048121;28;57941;-73
2021/09/16 04:10:49;;;;;;;;;13.33;9.00;;;;;17.93;71.44;101451.31;5039867;28;45361;-74
2021/09/16 04:13:15;;;;;;;;;8.00;8.00;;;;;17.89;71.11;101454.91;5044537;28;48490;-74
2021/09/16 04:15:40;;;;;;;;;13.67;8.33;;;;;17.87;71.27;101454.03;5043503;28;58552;-74
2021/09/16 04:18:06;;;;;;;;;9.67;9.00;;;;;17.76;71.65;101456.81;5049143;28;51520;-74
2021/09/16 04:20:31;;;;;;;;;11.33;8.67;;;;;17.79;71.37;101465.69;5048377;28;45517;-75
2021/09/16 04:22:56;;;;;;;;;9.33;8.00;;;;;17.75;71.56;101466.59;5039586;28;46524;-74
2021/09/16 04:25:22;;;;;;;;;8.33;8.33;;;;;17.75;71.69;101469.28;5048530;28;55235;-76
2021/09/16 04:27:47;;;;;;;;;7.33;7.33;;;;;17.73;71.82;101468.38;5041733;28;53626;-76
2021/09/16 04:30:13;;;;;;;;;10.00;10.00;;;;;17.74;71.71;101472.84;5050586;28;51219;-74
2021/09/16 04:32:39;;;;;;;;;8.33;8.33;;;;;17.74;72.18;101469.28;5055205;28;46196;-76
2021/09/16 04:35:06;;;;;;;;;8.67;7.00;;;;;17.72;71.94;101473.72;5052097;28;45442;-74
2021/09/16 04:37:31;;;;;;;;;9.00;9.00;;;;;17.70;71.84;101470.19;5055567;28;45387;-74
2021/09/16 04:39:57;;;;;;;;;10.33;10.00;;;;;17.66;71.83;101461.28;5049772;28;47226;-74
2021/09/16 04:42:22;;;;;;;;;11.00;9.00;;;;;17.69;72.03;101458.59;5052142;28;62902;-74
2021/09/16 04:44:47;;;;;;;;;12.00;9.33;;;;;17.67;72.11;101463.06;5042780;28;52417;-74
2021/09/16 04:47:13;;;;;;;;;11.00;10.00;;;;;17.65;72.04;101456.84;5053251;28;52782;-76
2021/09/16 04:50:27;;;;;;;;;10.33;9.33;;;;;17.65;71.93;101463.97;5046463;28;45550;-75
2021/09/16 04:52:53;;;;;;;;;11.00;8.00;;;;;17.63;72.19;101465.75;5044808;28;46637;-73
2021/09/16 04:55:18;;;;;;;;;10.00;9.33;;;;;17.58;72.25;101455.16;5047844;28;61079;-72
2021/09/16 04:57:43;;;;;;;;;11.33;10.33;;;;;17.61;72.33;101456.88;5040118;28;45834;-72
2021/09/16 05:00:09;;;;;;;;;10.00;8.00;;;;;17.59;72.30;101454.25;5051857;28;49160;-74
2021/09/16 05:02:35;;;;;;;;;12.00;12.00;;;;;17.59;72.30;101454.25;5051231;28;47110;-73
2021/09/16 05:05:00;;;;;;;;;10.67;9.00;;;;;17.58;72.61;101460.47;5036209;28;45349;-74
2021/09/16 05:07:25;;;;;;;;;9.67;9.00;;;;;17.57;72.66;101464.03;5042569;28;45676;-75
2021/09/16 05:09:51;;;;;;;;;11.00;10.00;;;;;17.55;72.33;101461.38;5037317;28;45630;-76
2021/09/16 05:12:16;;;;;;;;;13.00;10.33;;;;;17.51;72.57;101472.09;5037954;28;46584;-75
2021/09/16 05:14:42;;;;;;;;;10.33;9.33;;;;;17.51;72.71;101475.66;5045094;28;45420;-76
2021/09/16 05:17:07;;;;;;;;;12.67;12.67;;;;;17.48;72.55;101473.00;5032380;28;45394;-74
2021/09/16 05:19:33;;;;;;;;;14.00;10.33;;;;;17.44;72.87;101476.59;5046944;28;45681;-71
2021/09/16 05:21:58;;;;;;;;;11.67;10.67;;;;;17.42;73.29;101480.19;5041389;28;52448;-74
2021/09/16 05:24:23;;;;;;;;;14.00;12.00;;;;;17.41;73.26;101481.94;5044694;28;45504;-77
2021/09/16 05:26:49;;;;;;;;;13.00;12.00;;;;;17.40;73.21;101481.97;5043402;28;55033;-78
2021/09/16 05:29:14;;;;;;;;;12.00;11.67;;;;;17.35;73.27;101489.13;5043717;28;51877;-75
2021/09/16 05:31:40;;;;;;;;;14.33;13.00;;;;;17.36;73.71;101485.53;5042272;28;45993;-75
2021/09/16 05:34:05;;;;;;;;;5.00;2.67;;;;;17.34;73.58;101493.56;5046407;28;60621;-76
2021/09/16 05:36:31;;;;;;;;;11.33;11.00;;;;;17.29;73.67;101488.25;5010400;28;47943;-74
2021/09/16 05:38:56;;;;;;;;;14.00;12.67;;;;;17.32;73.70;101489.16;5048793;28;45330;-75
2021/09/16 05:41:21;;;;;;;;;14.67;13.67;;;;;17.27;73.75;101495.41;5052251;28;60361;-73
2021/09/16 05:43:47;;;;;;;;;13.00;13.00;;;;;17.24;74.03;101492.72;5054864;28;55331;-74
2021/09/16 05:46:12;;;;;;;;;15.67;12.00;;;;;17.22;73.90;101499.88;5056497;28;48551;-74
2021/09/16 05:48:38;;;;;;;;;12.33;12.33;;;;;17.17;74.37;101495.47;5049858;28;45526;-74
2021/09/16 05:51:03;;;;;;;;;14.00;12.00;;;;;17.12;73.89;101499.94;5051147;28;45677;-73
2021/09/16 05:53:28;;;;;;;;;16.00;13.00;;;;;17.07;74.70;101499.06;5063362;28;45465;-74
2021/09/16 05:55:54;;;;;;;;;12.33;12.00;;;;;17.03;74.78;101492.84;5052183;28;46230;-74
2021/09/16 05:58:19;;;;;;;;;16.33;12.00;;;;;16.99;74.99;101496.41;5064455;28;54446;-74
2021/09/16 06:00:44;;;;;;;;;12.00;12.00;;;;;16.97;74.80;101491.09;5058147;28;45708;-73
2021/09/16 06:03:10;;;;;;;;;14.33;12.00;;;;;16.98;75.00;101500.00;5056309;28;45510;-75
2021/09/16 06:05:35;;;;;;;;;17.33;12.00;;;;;16.97;74.64;101498.22;5045793;28;56681;-75
2021/09/16 06:08:01;;;;;;;;;18.00;17.67;;;;;17.00;74.62;101506.22;5055165;28;46127;-74
2021/09/16 06:10:26;;;;;;;;;19.00;18.33;;;;;17.02;74.89;101509.75;5034772;28;48396;-73
2021/09/16 06:12:51;;;;;;;;;15.33;13.33;;;;;17.03;74.76;101509.75;5052469;28;59855;-75
2021/09/16 06:15:17;;;;;;;;;15.67;13.67;;;;;17.03;75.05;101504.41;5045413;28;50846;-74
2021/09/16 06:17:42;;;;;;;;;17.67;14.67;;;;;17.10;74.55;101515.03;5048991;28;55133;-74
2021/09/16 06:20:08;;;;;;;;;18.33;12.33;;;;;17.09;74.75;101510.59;5041221;28;56916;-74
2021/09/16 06:22:34;;;;;;;;;14.00;12.00;;;;;17.10;74.85;101518.63;5046285;28;45452;-77
2021/09/16 06:24:59;;;;;;;;;16.00;16.00;;;;;17.19;74.38;101531.91;5045853;28;45840;-78
2021/09/16 06:27:25;;;;;;;;;18.00;14.33;;;;;17.21;74.47;101522.13;5051132;28;51082;-75
2021/09/16 06:29:50;;;;;;;;;12.67;11.67;;;;;17.23;74.74;101533.66;5049879;28;55717;-73
2021/09/16 06:32:16;;;;;;;;;8.00;8.00;;;;;17.27;74.32;101530.09;5052135;28;45652;-74
2021/09/16 06:34:41;;;;;;;;;16.67;9.67;;;;;17.32;74.14;101531.84;5049990;28;50645;-75
2021/09/16 06:37:06;;;;;;;;;8.33;8.33;;;;;17.34;74.01;101538.94;5054632;28;48353;-74
2021/09/16 06:39:32;;;;;;;;;9.00;8.33;;;;;17.38;73.72;101537.16;5056859;28;55065;-73
2021/09/16 06:41:57;;;;;;;;;9.00;9.00;;;;;17.40;74.03;101546.03;5029995;28;45387;-74
2021/09/16 06:44:23;;;;;;;;;9.67;8.67;;;;;17.42;73.94;101542.47;5035741;28;45439;-73
2021/09/16 06:46:48;;;;;;;;;10.33;7.33;;;;;17.44;73.57;101539.78;5024656;28;45609;-73
2021/09/16 06:49:13;;;;;;;;;8.00;7.00;;;;;17.45;73.75;101542.44;5027913;28;45888;-74
2021/09/16 06:51:39;;;;;;;;;8.00;7.67;;;;;17.50;73.53;101537.06;5029410;28;59561;-74
2021/09/16 06:54:04;;;;;;;;;11.67;8.00;;;;;17.52;73.37;101532.59;5021598;28;52188;-78
2021/09/16 06:56:29;;;;;;;;;8.67;7.00;;;;;17.60;73.06;101533.44;5024354;28;45654;-74
2021/09/16 06:58:55;;;;;;;;;8.00;8.00;;;;;17.67;73.07;101531.63;5025914;28;62367;-75
2021/09/16 07:01:20;;;;;;;;;11.00;7.33;;;;;17.74;72.64;101536.97;5025317;28;58883;-76
2021/09/16 07:03:47;;;;;;;;;7.00;5.67;;;;;17.82;72.45;101538.69;5030257;28;57692;-72
2021/09/16 07:06:13;;;;;;;;;10.00;7.00;;;;;17.82;72.17;101533.34;5028732;28;45415;-75
2021/09/16 07:08:38;;;;;;;;;10.67;8.33;;;;;17.91;71.89;101528.81;5029025;28;46270;-73
2021/09/16 07:11:04;;;;;;;;;14.00;14.00;;;;;18.06;71.78;101536.69;5034865;28;45637;-75
2021/09/16 07:13:29;;;;;;;;;27.00;25.00;;;;;18.22;71.81;101536.56;5025164;28;45775;-73
2021/09/16 07:15:54;;;;;;;;;6.00;6.00;;;;;18.27;71.12;101534.75;5012818;28;49999;-73
2021/09/16 07:18:20;;;;;;;;;10.00;7.00;;;;;18.28;70.77;101541.84;5029929;28;45539;-73
2021/09/16 07:20:45;;;;;;;;;6.33;6.33;;;;;18.30;70.60;101538.25;5034460;28;46476;-73
2021/09/16 07:23:11;;;;;;;;;7.67;6.00;;;;;18.31;70.72;101542.69;5040073;28;45816;-76
2021/09/16 07:25:36;;;;;;;;;8.00;6.33;;;;;18.32;70.44;101539.13;5029863;28;45551;-73
2021/09/16 07:28:01;;;;;;;;;6.67;6.67;;;;;18.35;69.47;101550.69;5014669;28;46634;-75
2021/09/16 07:30:27;;;;;;;;;8.67;6.00;;;;;18.35;70.43;101561.38;5035268;28;45921;-74
2021/09/16 07:32:52;;;;;;;;;11.33;6.67;;;;;18.32;68.90;101549.84;5035581;28;45287;-74
2021/09/16 07:35:18;;;;;;;;;8.00;8.00;;;;;18.36;68.43;101568.50;5033016;28;49059;-73
2021/09/16 07:37:43;;;;;;;;;8.00;6.67;;;;;18.38;69.30;101559.59;5026159;28;58742;-74
2021/09/16 07:40:16;;;;;;;;;6.25;5.75;;;;;18.42;69.67;101560.41;5022962;22;6333088;31
2021/09/16 07:42:42;;;;;;;;;9.33;7.00;;;;;18.44;69.55;101556.84;5011654;28;45514;-73
2021/09/16 07:45:07;;;;;;;;;8.00;7.67;;;;;18.42;69.69;101550.59;4997762;28;53485;-72
2021/09/16 07:47:33;;;;;;;;;8.67;7.00;;;;;18.49;69.68;101560.38;5000725;28;47262;-74
2021/09/16 07:49:58;;;;;;;;;8.00;6.67;;;;;18.53;69.10;101559.41;5002806;28;55252;-73
2021/09/16 07:52:24;;;;;;;;;7.67;7.33;;;;;18.56;69.12;101571.88;5001455;28;45619;-73
2021/09/16 07:54:49;;;;;;;;;7.33;7.00;;;;;18.60;68.95;101565.59;4998623;28;45672;-73
2021/09/16 07:57:14;;;;;;;;;10.00;5.33;;;;;18.60;68.89;101562.94;4997200;28;60379;-73
2021/09/16 07:59:40;;;;;;;;;7.67;7.00;;;;;18.65;68.66;101561.09;4999196;28;45480;-73
2021/09/16 08:02:05;;;;;;;;;5.00;5.00;;;;;18.68;68.88;101565.53;4959961;28;46224;-74
2021/09/16 08:04:32;;;;;;;;;7.00;5.67;;;;;18.70;67.87;101566.44;4957535;28;49696;-73
2021/09/16 08:06:57;;;;;;;;;6.00;6.00;;;;;18.71;68.22;101563.72;4950655;28;47007;-73
2021/09/16 08:09:24;;;;;;;;;7.00;6.00;;;;;18.74;68.07;101561.00;4973742;28;61832;-73
2021/09/16 08:11:49;;;;;;;;;5.00;3.67;;;;;18.79;68.22;101579.69;4964211;28;47307;-73
2021/09/16 08:14:14;;;;;;;;;7.00;5.00;;;;;18.85;67.44;101568.91;4966175;28;45747;-74
2021/09/16 08:16:41;;;;;;;;;5.67;4.33;;;;;18.88;68.08;101576.91;4968178;28;45989;-73
2021/09/16 08:19:06;;;;;;;;;9.67;4.33;;;;;18.90;68.04;101572.41;4964829;28;46097;-75
2021/09/16 08:21:32;;;;;;;;;5.67;5.00;;;;;18.95;67.94;101572.38;4967793;28;46111;-74
2021/09/16 08:23:57;;;;;;;;;8.00;5.33;;;;;19.01;67.92;101581.19;4967607;28;46505;-76
2021/09/16 08:26:23;;;;;;;;;4.00;4.00;;;;;19.07;67.82;101580.28;4967042;28;47280;-74
2021/09/16 08:28:49;;;;;;;;;2.67;2.00;;;;;19.10;67.17;101574.88;4966010;28;59605;-74
2021/09/16 08:31:14;;;;;;;;;2.33;2.00;;;;;19.16;66.76;101572.09;4983202;28;47124;-75
2021/09/16 08:33:39;;;;;;;;;3.00;1.33;;;;;19.21;66.40;101570.25;4968281;28;52798;-74
2021/09/16 08:36:05;;;;;;;;;3.67;2.00;;;;;19.25;66.45;101565.75;4965148;28;61874;-74
2021/09/16 08:38:30;;;;;;;;;4.00;2.00;;;;;19.29;66.27;101563.03;4965546;28;48859;-75
2021/09/16 08:40:56;;;;;;;;;2.33;1.00;;;;;19.36;65.19;101562.03;4968211;28;50227;-73
2021/09/16 08:43:26;;;;;;;;;1.67;1.67;;;;;19.40;65.05;101559.31;4967276;28;51783;-75
2021/09/16 08:45:51;;;;;;;;;2.33;1.00;;;;;19.44;64.99;101563.69;4945350;28;46524;-74
2021/09/16 08:48:16;;;;;;;;;4.00;2.00;;;;;19.48;64.58;101570.78;4967885;28;59319;-74
2021/09/16 08:50:42;;;;;;;;;6.67;5.00;;;;;19.52;63.35;101573.41;4966943;28;46441;-73
2021/09/16 08:53:07;;;;;;;;;4.33;2.00;;;;;19.55;63.66;101575.19;4962789;28;53991;-72
2021/09/16 08:55:33;;;;;;;;;2.00;1.33;;;;;19.57;63.33;101579.59;4957201;28;46329;-74
2021/09/16 08:58:00;;;;;;;;;5.00;2.33;;;;;19.58;62.48;101570.63;4964614;28;59177;-76
2021/09/16 09:00:26;;;;;;;;;2.00;2.00;;;;;19.64;63.35;101577.75;4964726;28;45947;-74
2021/09/16 09:02:52;;;;;;;;;2.33;2.33;;;;;19.65;62.52;101578.63;4965833;28;45959;-73
2021/09/16 09:05:17;;;;;;;;;1.00;1.00;;;;;19.68;62.80;101578.59;4962465;28;47312;-74
2021/09/16 09:07:49;;;;;;;;;2.00;2.00;;;;;19.71;62.17;101582.13;4953642;28;46254;-74
2021/09/16 09:10:36;;;;;;;;;2.33;2.33;;;;;19.76;63.10;101573.97;4968154;28;46409;-73
2021/09/16 09:13:01;;;;;;;;;1.33;1.33;;;;;19.79;62.12;101573.94;4963095;28;46371;-75
2021/09/16 09:15:27;;;;;;;;;3.67;3.67;;;;;19.83;62.86;101589.09;4960817;28;45810;-73
2021/09/16 09:18:04;;;;;;;;;5.00;4.00;;;;;19.85;62.91;101576.53;4966420;28;46863;-74
2021/09/16 09:20:29;;;;;;;;;3.33;3.33;;;;;19.92;62.59;101583.59;4961626;28;46493;-74
2021/09/16 09:22:54;;;;;;;;;4.67;3.33;;;;;19.97;62.73;101599.56;4955106;28;56221;-74
2021/09/16 09:25:20;;;;;;;;;5.33;5.33;;;;;20.00;62.36;101581.66;4955597;28;61293;-75
2021/09/16 09:27:50;;;;;;;;;5.00;5.00;;;;;20.06;61.76;101584.25;4950192;28;46608;-74
2021/09/16 09:30:16;;;;;;;;;4.33;4.33;;;;;20.12;61.66;101585.94;4937378;28;46441;-75
2021/09/16 09:33:00;;;;;;;;;3.33;3.33;;;;;20.15;62.51;101584.09;4950104;28;45997;-73
2021/09/16 09:35:32;;;;;;;;;3.33;3.00;;;;;20.16;59.95;101593.03;4949349;28;46575;-72
2021/09/16 09:37:59;;;;;;;;;7.00;5.00;;;;;20.20;61.67;101592.06;4945053;28;46902;-72
2021/09/16 09:40:35;;;;;;;;;7.67;4.00;;;;;20.25;61.62;101589.31;4950922;28;46425;-74
2021/09/16 09:43:20;;;;;;;;;7.00;4.00;;;;;20.30;60.14;101591.00;4946208;28;47067;-75
2021/09/16 09:46:15;;;;;;;;;2.00;2.00;;;;;20.36;59.49;101590.91;4950376;28;47342;-73
2021/09/16 09:48:59;;;;;;;;;6.00;3.67;;;;;20.41;60.08;101580.97;4940810;28;45710;-74
2021/09/16 09:51:35;;;;;;;;;6.67;3.00;;;;;20.45;60.53;101580.91;4947779;28;47188;-74
2021/09/16 09:54:26;;;;;;;;;4.00;3.67;;;;;20.48;60.31;101588.94;4939442;28;46260;-74
2021/09/16 09:57:10;;;;;;;;;4.00;4.00;;;;;20.53;59.24;101584.38;4926617;28;48005;-72
2021/09/16 09:59:58;;;;;;;;;7.00;4.00;;;;;20.52;58.71;101578.13;4926366;28;46621;-74
2021/09/16 10:02:31;;;;;;;;;7.67;5.00;;;;;20.51;57.44;101579.03;4921963;28;46641;-74
2021/09/16 10:04:57;;;;;;;;;5.33;4.00;;;;;20.54;56.58;101584.34;4925300;28;47174;-75
2021/09/16 10:07:33;;;;;;;;;4.67;2.67;;;;;20.60;58.00;101580.66;4919975;28;47845;-75
2021/09/16 10:09:59;;;;;;;;;5.67;4.67;;;;;20.63;59.02;101572.56;4935337;28;46348;-74
2021/09/16 10:12:25;;;;;;;;;5.00;4.00;;;;;20.71;58.91;101583.13;4927694;28;47198;-74
2021/09/16 10:14:50;;;;;;;;;3.00;3.00;;;;;20.74;59.78;101577.72;4928543;28;45589;-74
2021/09/16 10:17:15;;;;;;;;;5.33;4.33;;;;;20.83;59.95;101586.50;4927912;28;46952;-76
2021/09/16 10:19:42;;;;;;;;;3.00;3.00;;;;;20.88;58.40;101576.53;4929316;28;47328;-75
2021/09/16 10:22:09;;;;;;;;;2.00;2.00;;;;;20.91;58.77;101576.47;4933082;28;47185;-74
2021/09/16 10:24:34;;;;;;;;;5.33;3.00;;;;;20.98;58.82;101577.22;4935073;28;47285;-73
2021/09/16 10:26:59;;;;;;;;;4.67;4.67;;;;;20.99;55.18;101567.41;4930120;28;61165;-74
2021/09/16 10:29:28;;;;;;;;;4.00;3.00;;;;;20.99;57.94;101570.09;4990169;28;60340;-73
2021/09/16 10:32:05;;;;;;;;;5.00;2.00;;;;;21.00;58.13;101571.84;5015101;28;45545;-74
2021/09/16 10:34:47;;;;;;;;;4.00;4.00;;;;;21.00;58.63;101564.66;5016465;28;45413;-73
2021/09/16 10:37:14;;;;;;;;;4.67;4.33;;;;;21.03;57.28;101564.59;5017460;28;47657;-74
2021/09/16 10:39:41;;;;;;;;;4.00;3.00;;;;;21.07;56.92;101558.25;5017264;28;45495;-73
2021/09/16 10:42:07;;;;;;;;;4.00;4.00;;;;;21.09;56.81;101560.88;5016610;28;45548;-73
2021/09/16 10:44:32;;;;;;;;;3.00;3.00;;;;;21.11;57.33;101559.97;5011303;28;45457;-74
2021/09/16 10:47:01;;;;;;;;;3.00;3.00;;;;;21.21;55.65;101560.66;5023378;28;46645;-74
2021/09/16 10:49:26;;;;;;;;;4.00;4.00;;;;;21.29;57.55;101560.47;5002494;28;45394;-74
2021/09/16 10:52:11;;;;;;;;;4.33;4.00;;;;;21.35;57.00;101561.25;5017151;28;45677;-74
2021/09/16 10:54:39;;;;;;;;;2.33;2.33;;;;;21.43;56.44;101555.72;5017327;28;45502;-74
2021/09/16 10:57:14;;;;;;;;;5.00;5.00;;;;;21.47;58.19;101557.44;5016777;28;46977;-74
2021/09/16 10:59:49;;;;;;;;;3.67;3.33;;;;;21.50;55.04;101556.47;5017704;28;45541;-73
2021/09/16 11:02:17;;;;;;;;;4.00;2.67;;;;;21.52;55.96;101557.31;5016895;28;45436;-73
2021/09/16 11:04:54;;;;;;;;;3.33;2.00;;;;;21.53;56.56;101556.41;5009141;28;45841;-73
2021/09/16 11:07:32;;;;;;;;;3.00;3.00;;;;;21.54;56.24;101559.06;5012646;28;47605;-73
2021/09/16 11:10:13;;;;;;;;;4.00;3.00;;;;;21.55;54.28;101559.94;5016709;28;45473;-74
2021/09/16 11:12:38;;;;;;;;;27.67;22.33;;;;;21.50;55.23;101549.28;5017201;28;45313;-74
2021/09/16 11:15:04;;;;;;;;;46.50;39.00;;;;;21.51;54.91;101558.22;4998837;28;45562;-73
2021/09/16 11:17:29;;;;;;;;;12.33;11.33;;;;;21.48;53.37;101544.88;5020454;28;45696;-74